createdAt,value
2023-05-13T00:01:19.126Z,12.90
2023-05-13T00:03:47.657Z,14.98
2023-05-13T00:06:16.755Z,12.07
2023-05-13T00:08:44.470Z,13.63
2023-05-13T00:11:12.265Z,19.33
2023-05-13T00:13:39.851Z,9.93
2023-05-13T00:16:07.605Z,10.25
2023-05-13T00:18:35.176Z,10.15
2023-05-13T00:21:05.172Z,12.88
2023-05-13T00:23:34.029Z,22.73
2023-05-13T00:26:01.773Z,16.38
2023-05-13T00:28:29.289Z,12.77
2023-05-13T00:30:56.791Z,18.50
2023-05-13T00:33:24.414Z,25.23
2023-05-13T00:35:51.916Z,20.52
2023-05-13T00:38:19.390Z,24.60
2023-05-13T00:40:48.546Z,16.40
2023-05-13T00:43:16.131Z,14.80
2023-05-13T00:45:44.070Z,19.70
2023-05-13T00:48:11.742Z,14.90
2023-05-13T00:50:42.257Z,23.77
2023-05-13T00:53:09.828Z,12.77
2023-05-13T00:55:37.445Z,18.25
2023-05-13T00:58:09.203Z,21.45
2023-05-13T01:00:42.156Z,17.10
2023-05-13T01:03:15.503Z,15.55
2023-05-13T01:05:47.084Z,11.17
2023-05-13T01:08:20.865Z,15.40
2023-05-13T01:10:49.939Z,12.00
2023-05-13T01:13:23.492Z,12.95
2023-05-13T01:15:55.155Z,12.45
2023-05-13T01:18:27.866Z,14.75
2023-05-13T01:20:58.505Z,15.18
2023-05-13T01:23:30.106Z,21.40
2023-05-13T01:26:00.699Z,17.08
2023-05-13T01:28:30.089Z,15.48
2023-05-13T01:30:58.831Z,15.23
2023-05-13T01:33:28.086Z,18.73
2023-05-13T01:35:56.063Z,14.77
2023-05-13T01:38:24.003Z,16.23
2023-05-13T01:40:54.553Z,13.35
2023-05-13T01:43:23.621Z,11.75
2023-05-13T01:45:51.668Z,13.88
2023-05-13T01:48:19.819Z,12.50
2023-05-13T01:50:47.503Z,13.88
2023-05-13T01:53:15.211Z,12.70
2023-05-13T01:55:42.774Z,12.10
2023-05-13T01:58:14.051Z,11.00
2023-05-13T02:00:41.897Z,14.13
2023-05-13T02:03:10.023Z,15.57
2023-05-13T02:05:38.170Z,15.15
2023-05-13T02:08:06.759Z,15.88
2023-05-13T02:10:35.605Z,14.35
2023-05-13T02:13:03.992Z,15.55
2023-05-13T02:15:33.071Z,14.88
2023-05-13T02:18:00.624Z,15.43
2023-05-13T02:20:30.739Z,16.33
2023-05-13T02:23:00.215Z,16.20
2023-05-13T02:25:27.923Z,14.98
2023-05-13T02:27:55.424Z,20.48
2023-05-13T02:30:26.932Z,18.90
2023-05-13T02:32:56.404Z,17.50
2023-05-13T02:35:24.568Z,13.57
2023-05-13T02:37:52.154Z,14.23
2023-05-13T02:40:19.849Z,13.38
2023-05-13T02:42:47.491Z,19.92
2023-05-13T02:45:15.089Z,16.00
2023-05-13T02:47:42.694Z,15.38
2023-05-13T02:50:12.503Z,18.63
2023-05-13T02:52:40.233Z,11.70
2023-05-13T02:55:08.412Z,14.70
2023-05-13T02:57:36.242Z,15.05
2023-05-13T03:00:04.619Z,15.70
2023-05-13T03:02:32.292Z,24.50
2023-05-13T03:04:59.817Z,14.43
2023-05-13T03:07:28.770Z,13.32
2023-05-13T03:09:56.392Z,21.55
2023-05-13T03:12:23.886Z,12.60
2023-05-13T03:14:51.621Z,14.70
2023-05-13T03:17:19.526Z,20.05
2023-05-13T03:19:47.042Z,16.27
2023-05-13T03:22:14.772Z,18.92
2023-05-13T03:24:44.377Z,17.98
2023-05-13T03:27:12.243Z,14.18
2023-05-13T03:29:39.756Z,14.38
2023-05-13T03:32:07.675Z,15.45
2023-05-13T03:34:36.306Z,23.15
2023-05-13T03:37:03.948Z,14.68
2023-05-13T03:39:31.648Z,21.42
2023-05-13T03:42:01.116Z,12.98
2023-05-13T03:44:28.642Z,10.88
2023-05-13T03:46:56.176Z,21.38
2023-05-13T03:49:23.781Z,15.88
2023-05-13T03:51:51.347Z,17.05
2023-05-13T03:54:18.768Z,22.70
2023-05-13T03:56:46.215Z,23.25
2023-05-13T03:59:15.114Z,14.98
2023-05-13T04:01:42.625Z,10.63
2023-05-13T04:04:10.079Z,7.85
2023-05-13T04:06:37.629Z,7.85
2023-05-13T04:09:05.692Z,10.27
2023-05-13T04:11:33.446Z,13.48
2023-05-13T04:14:00.976Z,7.13
2023-05-13T04:16:29.813Z,8.75
2023-05-13T04:18:57.350Z,6.45
2023-05-13T04:21:24.975Z,5.43
2023-05-13T04:23:52.598Z,6.32
2023-05-13T04:26:20.279Z,10.73
2023-05-13T04:28:47.890Z,10.50
2023-05-13T04:31:15.510Z,7.65
2023-05-13T04:33:45.309Z,6.85
2023-05-13T04:36:14.986Z,5.63
2023-05-13T04:38:42.777Z,8.20
2023-05-13T04:41:10.261Z,5.45
2023-05-13T04:43:37.756Z,7.10
2023-05-13T04:46:05.333Z,9.60
2023-05-13T04:48:32.817Z,8.88
2023-05-13T04:51:02.089Z,9.93
2023-05-13T04:53:30.231Z,9.93
2023-05-13T04:56:00.923Z,5.13
2023-05-13T04:58:29.041Z,5.00
2023-05-13T05:00:57.422Z,8.55
2023-05-13T05:03:25.190Z,9.20
2023-05-13T05:05:52.783Z,6.75
2023-05-13T05:08:21.751Z,8.95
2023-05-13T05:10:49.611Z,7.00
2023-05-13T05:13:17.298Z,5.45
2023-05-13T05:15:44.816Z,7.75
2023-05-13T05:18:13.643Z,6.43
2023-05-13T05:20:41.242Z,7.82
2023-05-13T05:23:10.486Z,7.70
2023-05-13T05:25:40.711Z,9.20
2023-05-13T05:28:12.124Z,4.43
2023-05-13T05:30:40.411Z,9.20
2023-05-13T05:33:08.189Z,6.40
2023-05-13T05:35:37.417Z,6.93
2023-05-13T05:38:05.566Z,8.27
2023-05-13T05:40:33.400Z,10.55
2023-05-13T05:43:02.524Z,8.55
2023-05-13T05:45:29.967Z,5.97
2023-05-13T05:47:57.853Z,7.15
2023-05-13T05:50:25.390Z,7.20
2023-05-13T05:52:52.923Z,5.97
2023-05-13T05:55:20.466Z,4.50
2023-05-13T05:57:48.163Z,6.32
2023-05-13T06:00:18.928Z,5.78
2023-05-13T06:02:46.886Z,4.05
2023-05-13T06:05:14.607Z,5.68
2023-05-13T06:07:42.161Z,6.18
2023-05-13T06:10:10.340Z,3.90
2023-05-13T06:12:38.054Z,3.78
2023-05-13T06:15:06.564Z,8.68
2023-05-13T06:17:35.418Z,3.95
2023-05-13T06:20:03.359Z,5.78
2023-05-13T06:22:30.894Z,4.50
2023-05-13T06:24:58.663Z,8.65
2023-05-13T06:27:26.506Z,5.03
2023-05-13T06:29:54.270Z,4.82
2023-05-13T06:32:21.794Z,5.30
2023-05-13T06:34:54.517Z,7.38
2023-05-13T06:39:50.772Z,17.92
2023-05-13T06:42:18.961Z,5.25
2023-05-13T06:44:46.837Z,4.13
2023-05-13T06:47:16.478Z,5.70
2023-05-13T06:49:44.161Z,7.13
2023-05-13T06:52:13.584Z,3.03
2023-05-13T06:54:41.309Z,4.95
2023-05-13T06:57:09.105Z,2.63
2023-05-13T06:59:37.320Z,4.40
2023-05-13T07:02:05.371Z,3.17
2023-05-13T07:04:33.013Z,3.63
2023-05-13T07:07:00.635Z,13.43
2023-05-13T07:09:29.567Z,6.28
2023-05-13T07:11:59.694Z,6.03
2023-05-13T07:14:27.256Z,5.00
2023-05-13T07:16:54.750Z,6.20
2023-05-13T07:19:22.525Z,3.05
2023-05-13T07:21:50.443Z,8.05
2023-05-13T07:24:17.944Z,9.65
2023-05-13T07:26:46.943Z,3.05
2023-05-13T07:29:15.046Z,3.78
2023-05-13T07:31:42.684Z,4.65
2023-05-13T07:34:10.214Z,4.88
2023-05-13T07:36:37.845Z,3.58
2023-05-13T07:39:05.656Z,4.20
2023-05-13T07:41:33.489Z,4.80
2023-05-13T07:44:02.626Z,4.05
2023-05-13T07:46:30.124Z,3.35
2023-05-13T07:48:57.695Z,5.60
2023-05-13T07:51:25.229Z,3.97
2023-05-13T07:53:52.951Z,5.10
2023-05-13T07:56:20.480Z,2.50
2023-05-13T07:58:49.398Z,3.72
2023-05-13T08:01:18.383Z,6.93
2023-05-13T08:03:46.161Z,4.07
2023-05-13T08:06:13.757Z,3.03
2023-05-13T08:08:41.361Z,4.82
2023-05-13T08:11:09.419Z,4.55
2023-05-13T08:13:36.960Z,4.97
2023-05-13T08:16:07.363Z,2.38
2023-05-13T08:18:39.648Z,4.10
2023-05-13T08:21:07.411Z,2.17
2023-05-13T08:23:44.803Z,5.85
2023-05-13T08:26:13.900Z,3.13
2023-05-13T08:28:42.587Z,7.38
2023-05-13T08:31:12.510Z,2.28
2023-05-13T08:33:42.833Z,3.38
2023-05-13T08:41:06.408Z,3.45
2023-05-13T09:18:03.708Z,3.25
2023-05-13T09:20:31.588Z,2.83
2023-05-13T09:23:01.379Z,4.25
2023-05-13T09:25:30.001Z,4.50
2023-05-13T09:27:59.286Z,4.82
2023-05-13T09:30:29.351Z,4.53
2023-05-13T09:33:10.307Z,1.88
2023-05-13T09:35:40.331Z,3.67
2023-05-13T09:38:16.223Z,1.55
2023-05-13T09:40:50.758Z,1.73
2023-05-13T09:43:19.230Z,6.07
2023-05-13T09:45:46.807Z,2.72
2023-05-13T09:48:16.393Z,2.58
2023-05-13T09:50:48.126Z,1.05
2023-05-13T09:53:15.743Z,1.08
2023-05-13T09:55:46.293Z,2.70
2023-05-13T09:58:14.258Z,1.27
2023-05-13T10:00:42.695Z,4.03
2023-05-13T10:03:10.778Z,2.70
2023-05-13T10:05:39.924Z,0.65
2023-05-13T10:08:09.188Z,1.13
2023-05-13T10:10:37.073Z,5.15
2023-05-13T10:13:07.020Z,3.05
2023-05-13T10:15:35.531Z,1.52
2023-05-13T10:18:05.916Z,3.28
2023-05-13T10:20:34.978Z,1.55
2023-05-13T10:23:04.245Z,2.05
2023-05-13T10:25:31.804Z,5.22
2023-05-13T10:27:59.707Z,5.18
2023-05-13T10:30:29.918Z,2.33
2023-05-13T10:32:57.924Z,2.95
2023-05-13T10:35:27.919Z,1.83
2023-05-13T10:37:58.179Z,8.15
2023-05-13T10:40:47.585Z,4.40
2023-05-13T10:43:19.076Z,2.30
2023-05-13T10:45:48.445Z,2.10
2023-05-13T10:48:17.403Z,3.67
2023-05-13T10:50:53.152Z,2.45
2023-05-13T10:53:22.813Z,1.17
2023-05-13T10:55:53.492Z,4.43
2023-05-13T10:58:30.227Z,2.95
2023-05-13T11:01:12.825Z,2.40
2023-05-13T11:03:42.075Z,1.33
2023-05-13T11:06:16.947Z,4.17
2023-05-13T11:08:45.273Z,3.35
2023-05-13T11:11:19.638Z,2.10
2023-05-13T11:13:50.491Z,3.80
2023-05-13T11:16:21.273Z,1.30
2023-05-13T11:18:49.241Z,5.37
2023-05-13T11:21:17.080Z,3.03
2023-05-13T11:23:53.773Z,6.25
2023-05-13T11:26:21.696Z,1.60
2023-05-13T11:29:05.136Z,2.42
2023-05-13T11:31:44.671Z,3.93
2023-05-13T11:34:13.239Z,5.22
2023-05-13T11:36:42.205Z,1.92
2023-05-13T11:39:15.425Z,2.50
2023-05-13T11:41:43.798Z,3.80
2023-05-13T11:44:13.360Z,1.70
2023-05-13T11:46:50.075Z,1.90
2023-05-13T11:49:30.731Z,3.38
2023-05-13T11:51:59.486Z,4.90
2023-05-13T11:54:27.101Z,3.00
2023-05-13T11:56:54.950Z,3.83
2023-05-13T11:59:23.931Z,2.65
2023-05-13T12:02:00.087Z,3.70
2023-05-13T12:04:28.865Z,8.48
2023-05-13T12:06:56.421Z,1.73
2023-05-13T12:09:24.687Z,3.35
2023-05-13T12:11:52.763Z,7.38
2023-05-13T12:14:28.003Z,2.55
2023-05-13T12:16:55.984Z,3.38
2023-05-13T12:19:23.488Z,2.55
2023-05-13T12:21:51.597Z,1.70
2023-05-13T12:24:19.795Z,3.85
2023-05-13T12:26:47.361Z,6.13
2023-05-13T12:29:15.151Z,4.72
2023-05-13T12:31:44.962Z,2.70
2023-05-13T12:34:12.487Z,2.88
2023-05-13T12:36:40.514Z,5.38
2023-05-13T12:39:10.001Z,1.42
2023-05-13T12:41:38.069Z,1.48
2023-05-13T12:44:08.574Z,2.35
2023-05-13T12:46:36.219Z,5.18
2023-05-13T12:49:05.904Z,2.25
2023-05-13T12:51:34.271Z,4.97
2023-05-13T12:54:02.071Z,6.00
2023-05-13T12:56:29.595Z,2.25
2023-05-13T12:58:57.357Z,2.10
2023-05-13T13:01:25.109Z,3.17
2023-05-13T13:03:52.879Z,1.63
2023-05-13T13:06:21.981Z,2.70
2023-05-13T13:08:49.692Z,2.15
2023-05-13T13:11:18.930Z,2.90
2023-05-13T13:13:46.823Z,2.42
2023-05-13T13:16:14.493Z,2.63
2023-05-13T13:18:42.140Z,9.35
2023-05-13T13:21:09.829Z,4.22
2023-05-13T13:23:39.702Z,1.23
2023-05-13T13:26:07.740Z,1.35
2023-05-13T13:28:35.290Z,1.75
2023-05-13T13:31:02.948Z,4.93
2023-05-13T13:33:30.785Z,3.15
2023-05-13T13:35:58.272Z,1.35
2023-05-13T13:38:25.812Z,2.50
2023-05-13T13:40:57.793Z,1.95
2023-05-13T13:43:35.292Z,3.53
2023-05-13T13:46:02.899Z,2.03
2023-05-13T13:48:30.421Z,2.53
2023-05-13T13:50:59.692Z,1.70
2023-05-13T13:53:27.262Z,3.88
2023-05-13T13:55:54.736Z,2.38
2023-05-13T13:58:23.787Z,1.90
2023-05-13T14:00:51.361Z,2.50
2023-05-13T14:03:19.403Z,1.83
2023-05-13T14:05:47.124Z,2.80
2023-05-13T14:08:14.606Z,1.77
2023-05-13T14:10:42.393Z,1.77
2023-05-13T14:13:10.118Z,2.15
2023-05-13T14:15:39.941Z,3.55
2023-05-13T14:18:07.968Z,2.55
2023-05-13T14:20:36.013Z,5.65
2023-05-13T14:23:09.080Z,2.00
2023-05-13T14:25:36.839Z,1.90
2023-05-13T14:28:04.426Z,5.60
2023-05-13T14:30:32.074Z,5.45
2023-05-13T14:33:01.377Z,1.92
2023-05-13T14:35:28.884Z,1.98
2023-05-13T14:37:56.573Z,8.43
2023-05-13T14:40:24.766Z,2.13
2023-05-13T14:42:52.457Z,1.58
2023-05-13T14:45:19.909Z,3.65
2023-05-13T14:47:47.520Z,6.80
2023-05-13T14:50:16.460Z,4.15
2023-05-13T14:52:43.996Z,1.25
2023-05-13T14:55:12.047Z,2.67
2023-05-13T14:57:39.702Z,1.58
2023-05-13T15:00:07.971Z,4.68
2023-05-13T15:02:35.672Z,5.18
2023-05-13T15:05:03.279Z,2.05
2023-05-13T15:07:34.261Z,2.55
2023-05-13T15:10:01.863Z,3.45
2023-05-13T15:12:29.447Z,2.33
2023-05-13T15:14:57.096Z,1.67
2023-05-13T15:17:24.946Z,2.28
2023-05-13T15:19:52.632Z,5.63
2023-05-13T15:22:20.214Z,5.78
2023-05-13T15:24:49.588Z,9.20
2023-05-13T15:27:17.229Z,2.83
2023-05-13T15:29:44.722Z,1.95
2023-05-13T15:32:15.562Z,4.43
2023-05-13T15:34:43.200Z,3.07
2023-05-13T15:37:10.702Z,3.55
2023-05-13T15:39:38.194Z,1.80
2023-05-13T16:04:15.683Z,2.20
2023-05-13T16:06:43.175Z,3.50
2023-05-13T17:30:23.099Z,3.45
2023-05-13T17:35:18.228Z,6.38
2023-05-13T17:37:45.947Z,7.40
2023-05-13T17:40:13.903Z,5.47
2023-05-13T17:42:41.408Z,7.43
2023-05-13T17:47:37.817Z,13.65
2023-05-13T18:02:25.946Z,7.60
2023-05-13T18:07:22.191Z,7.80
2023-05-13T18:09:50.104Z,15.80
2023-05-13T18:12:17.964Z,6.63
2023-05-13T18:14:45.534Z,12.07
2023-05-13T18:24:38.083Z,15.25
2023-05-13T18:27:05.840Z,9.82
2023-05-13T18:29:33.866Z,7.70
2023-05-13T18:32:02.038Z,8.70
2023-05-13T18:34:29.898Z,7.77
2023-05-13T18:41:53.790Z,12.70
2023-05-13T18:44:21.653Z,10.15
2023-05-13T18:46:49.217Z,12.25
2023-05-13T18:49:16.766Z,10.95
2023-05-13T18:51:45.426Z,12.23
2023-05-13T18:54:13.067Z,11.02
2023-05-13T18:56:41.104Z,10.85
2023-05-13T18:59:11.294Z,10.35
2023-05-13T19:01:39.066Z,23.20
2023-05-13T19:04:06.842Z,7.53
2023-05-13T19:06:35.909Z,10.35
2023-05-13T19:09:03.648Z,12.65
2023-05-13T19:11:31.173Z,14.75
2023-05-13T19:13:58.829Z,15.35
2023-05-13T19:16:27.897Z,19.15
2023-05-13T19:18:56.560Z,17.25
2023-05-13T19:21:24.973Z,13.43
2023-05-13T19:23:52.730Z,19.15
2023-05-13T19:26:20.697Z,19.48
2023-05-13T19:28:48.886Z,16.33
2023-05-13T19:31:16.432Z,31.50
2023-05-13T19:33:48.985Z,16.52
2023-05-13T19:36:17.940Z,16.40
2023-05-13T19:38:45.445Z,17.50
2023-05-13T19:41:13.028Z,20.02
2023-05-13T19:43:40.819Z,19.52
2023-05-13T19:46:08.381Z,16.27
2023-05-13T19:48:36.096Z,21.02
2023-05-13T19:51:03.599Z,20.88
2023-05-13T19:53:32.578Z,24.92
2023-05-13T19:56:00.746Z,21.45
2023-05-13T19:58:28.535Z,23.50
2023-05-13T20:00:56.377Z,22.77
2023-05-13T20:03:24.113Z,24.00
2023-05-13T20:05:53.118Z,20.95
2023-05-13T20:08:23.017Z,27.30
2023-05-13T20:10:52.015Z,24.25
2023-05-13T20:13:20.114Z,23.60
2023-05-13T20:15:49.015Z,19.48
2023-05-13T20:18:16.667Z,18.35
2023-05-13T20:20:46.909Z,19.23
2023-05-13T20:23:15.183Z,15.60
2023-05-13T20:25:42.657Z,23.30
2023-05-13T20:28:11.615Z,22.17
2023-05-13T20:30:41.378Z,21.75
2023-05-13T20:33:08.903Z,19.83
2023-05-13T20:35:37.321Z,16.95
2023-05-13T20:38:04.793Z,17.95
2023-05-13T20:40:32.227Z,18.10
2023-05-13T20:43:01.442Z,18.25
2023-05-13T20:45:30.264Z,24.90
2023-05-13T20:47:59.246Z,21.52
2023-05-13T20:50:28.381Z,17.45
2023-05-13T20:52:55.966Z,24.48
2023-05-13T20:55:23.582Z,19.98
2023-05-13T20:57:51.200Z,17.88
2023-05-13T21:00:18.837Z,24.42
2023-05-13T21:02:48.731Z,28.85
2023-05-13T21:05:16.488Z,21.10
2023-05-13T21:07:43.930Z,27.17
2023-05-13T21:10:11.621Z,26.65
2023-05-13T21:12:39.222Z,25.58
2023-05-13T21:15:07.157Z,31.55
2023-05-13T21:17:34.616Z,16.38
2023-05-13T21:20:04.290Z,19.73
2023-05-13T21:22:31.823Z,15.82
2023-05-13T21:24:59.771Z,24.35
2023-05-13T21:27:27.338Z,23.23
2023-05-13T21:29:54.800Z,16.40
2023-05-13T21:32:22.268Z,15.27
2023-05-13T21:34:49.848Z,16.70
2023-05-13T21:37:18.645Z,17.95
2023-05-13T21:39:46.098Z,17.80
2023-05-13T21:42:13.842Z,15.32
2023-05-13T21:44:41.919Z,23.67
2023-05-13T21:47:09.513Z,15.52
2023-05-13T21:49:37.040Z,14.80
2023-05-13T21:52:04.628Z,7.82
2023-05-13T21:54:33.381Z,12.68
2023-05-13T21:57:02.024Z,14.23
2023-05-13T21:59:29.529Z,11.05
2023-05-13T22:01:57.446Z,13.68
2023-05-13T22:04:26.505Z,15.40
2023-05-13T22:06:54.735Z,15.05
2023-05-13T22:09:22.204Z,12.85
2023-05-13T22:11:51.480Z,10.98
2023-05-13T22:14:18.936Z,12.05
2023-05-13T22:16:51.909Z,9.40
2023-05-13T22:19:22.842Z,12.32
2023-05-13T22:21:50.385Z,11.05
2023-05-13T22:24:17.852Z,13.57
2023-05-13T22:27:14.845Z,9.02
2023-05-13T22:29:46.401Z,11.43
2023-05-13T22:32:14.133Z,9.70
2023-05-13T22:34:41.660Z,8.05
2023-05-13T22:37:09.098Z,8.35
2023-05-13T22:39:36.734Z,6.97
2023-05-13T22:42:04.212Z,8.00
2023-05-13T22:44:31.686Z,4.70
2023-05-13T22:47:00.873Z,4.72
2023-05-13T22:49:28.326Z,6.57
2023-05-13T22:51:55.983Z,4.00
2023-05-13T22:54:24.051Z,7.07
2023-05-13T22:56:51.577Z,7.40
2023-05-13T22:59:19.040Z,9.15
2023-05-13T23:01:46.683Z,6.07
2023-05-13T23:04:18.163Z,9.35
2023-05-13T23:06:45.675Z,6.60
2023-05-13T23:09:13.171Z,6.28
2023-05-13T23:11:41.023Z,7.45
2023-05-13T23:14:08.942Z,3.72
2023-05-13T23:16:36.693Z,7.10
2023-05-13T23:19:04.362Z,5.35
2023-05-13T23:21:33.417Z,11.48
2023-05-13T23:24:01.014Z,6.93
2023-05-13T23:26:28.464Z,6.90
2023-05-13T23:28:57.673Z,4.32
2023-05-13T23:31:25.297Z,4.38
2023-05-13T23:33:52.826Z,5.68
2023-05-13T23:36:20.285Z,6.75
2023-05-13T23:38:50.826Z,6.57
2023-05-13T23:41:18.345Z,6.57
2023-05-13T23:43:46.100Z,7.72
2023-05-13T23:46:16.376Z,5.85
2023-05-13T23:48:43.897Z,5.68
2023-05-13T23:51:11.359Z,4.70
2023-05-13T23:53:40.161Z,4.95
2023-05-13T23:56:09.211Z,6.00
2023-05-13T23:58:45.882Z,5.40
